Terminal Aerodrome Forecast
Issued by NWS

Home | Current Version | Previous Version | Text Only | Print | Product List | Glossary On
Versions: 1 2 3 4 5 6 7 8 9 10 11 12 13 14 15 16
000
FTUS43 KBIS 051151
TAFJMS
TAF
KJMS 051151Z 0512/0612 16007KT P6SM SCT090
     FM051600 15016G26KT P6SM BKN080
     FM060100 13009KT P6SM BKN030=

USA.gov is the U.S. government's official web portal to all federal, state and local government web resources and services.